createdAt,value
2018-09-30T00:01:39.926Z,102146.55
2018-09-30T00:04:08.924Z,102138.02
2018-09-30T00:06:38.176Z,102136.00
2018-09-30T00:09:08.164Z,102123.48
2018-09-30T00:11:37.150Z,102126.30
2018-09-30T00:14:06.132Z,102119.73
2018-09-30T00:16:35.020Z,102122.33
2018-09-30T00:19:03.956Z,102125.40
2018-09-30T00:21:32.886Z,102117.20
2018-09-30T00:24:07.188Z,102117.48
2018-09-30T00:26:41.702Z,102108.28
2018-09-30T00:29:11.640Z,102110.57
2018-09-30T00:31:40.542Z,102104.61
2018-09-30T00:34:14.792Z,102106.38
2018-09-30T00:36:43.697Z,102093.28
2018-09-30T00:39:12.651Z,102094.41
2018-09-30T00:41:41.552Z,102096.53
2018-09-30T00:44:10.653Z,102082.13
2018-09-30T00:46:39.610Z,102081.84
2018-09-30T00:49:09.673Z,102074.82
2018-09-30T00:51:38.559Z,102074.36
2018-09-30T00:54:07.458Z,102065.93
2018-09-30T00:56:36.413Z,102065.01
2018-09-30T00:59:05.361Z,102058.34
2018-09-30T01:01:34.294Z,102052.63
2018-09-30T01:04:03.366Z,102043.03
2018-09-30T01:06:32.465Z,102046.36
2018-09-30T01:09:03.351Z,102037.96
2018-09-30T01:11:32.298Z,102037.31
2018-09-30T01:14:01.206Z,102041.29
2018-09-30T01:16:30.110Z,102034.41
2018-09-30T01:18:59.095Z,102027.80
2018-09-30T01:21:28.072Z,102025.47
2018-09-30T01:23:57.041Z,102027.19
2018-09-30T01:26:27.007Z,102018.64
2018-09-30T01:28:55.964Z,102013.20
2018-09-30T01:31:24.912Z,102005.78
2018-09-30T01:33:53.869Z,101995.41
2018-09-30T01:36:22.776Z,101989.78
2018-09-30T01:38:51.752Z,101993.94
2018-09-30T01:41:20.640Z,101992.30
2018-09-30T01:43:49.632Z,101983.95
2018-09-30T01:46:18.600Z,101978.23
2018-09-30T01:48:47.502Z,101978.06
2018-09-30T01:51:16.422Z,101983.07
2018-09-30T01:53:45.363Z,101979.91
2018-09-30T01:56:14.291Z,101975.38
2018-09-30T01:58:43.195Z,101968.19
2018-09-30T02:01:12.171Z,101988.86
2018-09-30T02:03:41.080Z,101979.85
2018-09-30T02:06:12.769Z,101975.13
2018-09-30T02:08:41.681Z,101973.77
2018-09-30T02:11:10.604Z,101975.20
2018-09-30T02:13:39.489Z,101967.03
2018-09-30T02:16:08.428Z,101977.14
2018-09-30T02:18:37.398Z,101968.41
2018-09-30T02:21:06.438Z,101972.97
2018-09-30T02:23:35.533Z,101970.11
2018-09-30T02:26:04.446Z,101964.34
2018-09-30T02:28:33.350Z,101959.03
2018-09-30T02:31:02.235Z,101951.33
2018-09-30T02:33:31.126Z,101955.94
2018-09-30T02:36:00.030Z,101959.33
2018-09-30T02:38:28.940Z,101958.67
2018-09-30T02:40:57.942Z,101947.06
2018-09-30T02:43:26.872Z,101937.65
2018-09-30T02:45:56.864Z,101932.95
2018-09-30T02:48:25.842Z,101928.91
2018-09-30T02:50:54.779Z,101933.08
2018-09-30T02:53:23.762Z,101926.09
2018-09-30T02:55:52.656Z,101933.47
2018-09-30T02:58:21.583Z,101930.36
2018-09-30T03:00:50.596Z,101928.58
2018-09-30T03:03:19.544Z,101921.49
2018-09-30T03:05:48.477Z,101913.34
2018-09-30T03:08:22.788Z,101917.11
2018-09-30T03:10:51.717Z,101912.89
2018-09-30T03:13:20.687Z,101913.91
2018-09-30T03:15:49.688Z,101913.08
2018-09-30T03:18:18.670Z,101916.02
2018-09-30T03:20:47.561Z,101915.09
2018-09-30T03:23:16.587Z,101909.66
2018-09-30T03:25:45.548Z,101911.08
2018-09-30T03:28:14.422Z,101915.02
2018-09-30T03:30:43.411Z,101908.80
2018-09-30T03:33:12.341Z,101915.69
2018-09-30T03:35:41.253Z,101918.23
2018-09-30T03:38:10.187Z,101909.73
2018-09-30T03:40:39.085Z,101911.31
2018-09-30T03:43:13.905Z,101908.73
2018-09-30T03:45:42.841Z,101909.41
2018-09-30T03:48:11.831Z,101910.31
2018-09-30T03:50:40.769Z,101911.03
2018-09-30T03:53:09.680Z,101907.53
2018-09-30T03:55:38.609Z,101905.14
2018-09-30T03:58:07.567Z,101892.70
2018-09-30T04:00:37.623Z,101901.27
2018-09-30T04:03:06.541Z,101889.25
2018-09-30T04:05:35.427Z,101893.56
2018-09-30T04:08:04.353Z,101888.33
2018-09-30T04:10:33.257Z,101884.84
2018-09-30T04:13:04.302Z,101880.63
2018-09-30T04:15:33.185Z,101881.50
2018-09-30T04:18:02.312Z,101878.52
2018-09-30T04:20:31.212Z,101883.47
2018-09-30T04:23:01.156Z,101880.73
2018-09-30T04:25:30.053Z,101876.18
2018-09-30T04:27:58.940Z,101874.55
2018-09-30T04:30:27.803Z,101887.73
2018-09-30T04:32:56.697Z,101885.91
2018-09-30T04:35:25.644Z,101885.67
2018-09-30T04:37:54.694Z,101876.86
2018-09-30T04:40:23.699Z,101875.80
2018-09-30T04:42:52.684Z,101868.19
2018-09-30T04:45:21.605Z,101862.45
2018-09-30T04:47:50.473Z,101864.02
2018-09-30T04:50:19.397Z,101868.05
2018-09-30T04:52:48.315Z,101857.51
2018-09-30T04:55:17.292Z,101852.67
2018-09-30T04:57:46.336Z,101848.70
2018-09-30T05:00:15.316Z,101849.04
2018-09-30T05:02:44.212Z,101846.49
2018-09-30T05:05:13.163Z,101839.02
2018-09-30T05:07:42.088Z,101836.97
2018-09-30T05:10:11.021Z,101841.31
2018-09-30T05:12:42.909Z,101836.47
2018-09-30T05:15:11.864Z,101834.95
2018-09-30T05:17:40.856Z,101828.00
2018-09-30T05:20:10.456Z,101831.38
2018-09-30T05:22:42.580Z,101838.39
2018-09-30T05:25:11.569Z,101836.29
2018-09-30T05:27:40.500Z,101834.34
2018-09-30T05:30:09.407Z,101832.52
2018-09-30T05:32:38.321Z,101829.79
2018-09-30T05:35:07.373Z,101827.11
2018-09-30T05:37:36.372Z,101829.82
2018-09-30T05:40:05.300Z,101826.95
2018-09-30T05:42:34.265Z,101829.05
2018-09-30T05:45:03.221Z,101827.38
2018-09-30T05:47:32.204Z,101826.14
2018-09-30T05:50:01.162Z,101826.56
2018-09-30T05:52:30.079Z,101825.33
2018-09-30T05:54:59.033Z,101831.27
2018-09-30T05:57:28.100Z,101821.82
2018-09-30T05:59:57.004Z,101821.11
2018-09-30T06:02:25.900Z,101830.39
2018-09-30T06:04:54.821Z,101822.81
2018-09-30T06:07:23.741Z,101822.42
2018-09-30T06:09:52.672Z,101815.72
2018-09-30T06:12:21.624Z,101811.67
2018-09-30T06:14:50.565Z,101811.32
2018-09-30T06:17:19.486Z,101817.22
2018-09-30T06:19:48.479Z,101810.88
2018-09-30T06:22:17.398Z,101815.16
2018-09-30T06:24:46.362Z,101818.87
2018-09-30T06:27:15.260Z,101807.70
2018-09-30T06:29:45.437Z,101823.71
2018-09-30T06:32:14.596Z,101818.58
2018-09-30T06:34:43.490Z,101818.72
2018-09-30T06:37:12.511Z,101820.63
2018-09-30T06:39:41.345Z,101818.27
2018-09-30T06:42:10.244Z,101822.12
2018-09-30T06:44:44.574Z,101817.09
2018-09-30T06:47:14.612Z,101813.08
2018-09-30T06:49:44.668Z,101817.91
2018-09-30T06:52:14.681Z,101811.05
2018-09-30T06:54:44.699Z,101809.94
2018-09-30T06:57:15.704Z,101813.02
2018-09-30T06:59:44.681Z,101812.44
2018-09-30T07:02:13.724Z,101813.29
2018-09-30T07:04:42.678Z,101809.41
2018-09-30T07:07:11.682Z,101809.20
2018-09-30T07:09:40.676Z,101814.05
2018-09-30T07:12:09.672Z,101820.27
2018-09-30T07:14:38.651Z,101824.27
2018-09-30T07:17:07.684Z,101821.13
2018-09-30T07:19:36.637Z,101819.28
2018-09-30T07:23:08.725Z,101823.47
2018-09-30T07:25:37.673Z,101819.98
2018-09-30T07:28:08.836Z,101818.59
2018-09-30T07:30:37.847Z,101817.49
2018-09-30T07:33:06.827Z,101822.61
2018-09-30T07:35:35.829Z,101813.61
2018-09-30T07:38:04.805Z,101810.84
2018-09-30T07:40:33.852Z,101809.20
2018-09-30T07:43:02.806Z,101792.16
2018-09-30T07:45:32.102Z,101800.02
2018-09-30T07:48:01.072Z,101791.35
2018-09-30T07:50:30.108Z,101803.95
2018-09-30T07:52:59.077Z,101802.57
2018-09-30T07:55:31.814Z,101792.79
2018-09-30T07:58:00.712Z,101787.55
2018-09-30T08:00:29.653Z,101795.78
2018-09-30T08:02:58.583Z,101793.86
2018-09-30T08:05:27.489Z,101788.91
2018-09-30T08:07:56.413Z,101788.20
2018-09-30T08:10:25.362Z,101783.86
2018-09-30T08:12:54.250Z,101782.15
2018-09-30T08:15:23.197Z,101778.08
2018-09-30T08:17:52.123Z,101780.71
2018-09-30T08:20:21.077Z,101769.86
2018-09-30T08:22:50.000Z,101772.23
2018-09-30T08:25:18.972Z,101770.97
2018-09-30T08:27:51.304Z,101774.62
2018-09-30T08:30:20.322Z,101770.43
2018-09-30T08:32:49.223Z,101764.67
2018-09-30T08:35:18.243Z,101763.84
2018-09-30T08:37:52.530Z,101769.23
2018-09-30T08:40:27.888Z,101764.42
2018-09-30T08:42:57.049Z,101762.73
2018-09-30T08:45:25.986Z,101761.47
2018-09-30T08:47:54.978Z,101754.52
2018-09-30T08:50:23.892Z,101759.54
2018-09-30T08:52:52.835Z,101769.58
2018-09-30T08:55:22.899Z,101762.21
2018-09-30T08:57:55.333Z,101762.25
2018-09-30T09:00:24.357Z,101757.31
2018-09-30T09:02:53.330Z,101763.16
2018-09-30T09:05:22.231Z,101764.24
2018-09-30T09:07:51.160Z,101759.91
2018-09-30T09:10:20.125Z,101769.28
2018-09-30T09:12:49.104Z,101768.75
2018-09-30T09:15:18.038Z,101769.23
2018-09-30T09:17:46.950Z,101761.96
2018-09-30T09:20:15.997Z,101764.92
2018-09-30T09:22:44.950Z,101764.63
2018-09-30T09:25:13.803Z,101753.06
2018-09-30T09:27:42.712Z,101754.50
2018-09-30T09:30:11.666Z,101749.09
2018-09-30T09:32:40.641Z,101749.06
2018-09-30T09:35:10.385Z,101750.46
2018-09-30T09:37:39.507Z,101739.82
2018-09-30T09:40:10.128Z,101740.59
2018-09-30T09:42:39.186Z,101738.95
2018-09-30T09:45:08.303Z,101736.95
2018-09-30T09:47:37.217Z,101732.98
2018-09-30T09:50:07.017Z,101728.89
2018-09-30T09:52:36.105Z,101734.74
2018-09-30T09:55:05.025Z,101726.56
2018-09-30T09:57:33.963Z,101729.14
2018-09-30T10:00:02.964Z,101717.52
2018-09-30T10:02:32.024Z,101730.28
2018-09-30T10:05:01.036Z,101727.50
2018-09-30T10:07:29.981Z,101724.27
2018-09-30T10:09:58.888Z,101726.44
2018-09-30T10:12:28.026Z,101728.03
2018-09-30T10:14:56.943Z,101729.84
2018-09-30T10:17:25.927Z,101725.17
2018-09-30T10:19:54.843Z,101715.64
2018-09-30T10:22:23.772Z,101713.70
2018-09-30T10:24:52.782Z,101710.81
2018-09-30T10:27:21.737Z,101708.84
2018-09-30T10:29:50.636Z,101705.33
2018-09-30T10:32:22.393Z,101711.30
2018-09-30T10:34:55.588Z,101701.15
2018-09-30T10:37:24.660Z,101700.91
2018-09-30T10:39:53.598Z,101707.04
2018-09-30T10:42:24.134Z,101699.02
2018-09-30T10:44:53.125Z,101694.53
2018-09-30T10:47:22.156Z,101694.61
2018-09-30T10:49:51.070Z,101698.66
2018-09-30T10:52:20.016Z,101694.81
2018-09-30T10:54:49.020Z,101685.66
2018-09-30T10:57:17.982Z,101683.81
2018-09-30T10:59:46.885Z,101682.53
2018-09-30T11:02:15.823Z,101684.00
2018-09-30T11:04:44.743Z,101679.38
2018-09-30T11:07:13.709Z,101673.40
2018-09-30T11:09:42.752Z,101669.34
2018-09-30T11:12:11.583Z,101672.83
2018-09-30T11:14:40.533Z,101668.28
2018-09-30T11:17:09.365Z,101663.38
2018-09-30T11:19:38.248Z,101656.05
2018-09-30T11:22:07.141Z,101661.53
2018-09-30T11:24:36.432Z,101656.99
2018-09-30T11:27:05.356Z,101662.80
2018-09-30T11:29:34.295Z,101663.29
2018-09-30T11:32:03.216Z,101658.75
2018-09-30T11:34:32.204Z,101657.31
2018-09-30T11:37:01.123Z,101653.30
2018-09-30T11:39:30.046Z,101649.35
2018-09-30T11:41:59.073Z,101650.64
2018-09-30T11:44:28.023Z,101646.78
2018-09-30T11:46:56.955Z,101647.05
2018-09-30T11:49:25.860Z,101646.67
2018-09-30T11:51:54.807Z,101646.30
2018-09-30T11:54:23.775Z,101641.66
2018-09-30T11:56:53.052Z,101647.64
2018-09-30T11:59:21.955Z,101645.73
2018-09-30T12:01:50.869Z,101646.14
2018-09-30T12:04:19.832Z,101638.61
2018-09-30T12:06:48.734Z,101637.12
2018-09-30T12:09:17.688Z,101632.31
2018-09-30T12:11:46.560Z,101631.73
2018-09-30T12:14:15.484Z,101632.80
2018-09-30T12:16:44.463Z,101625.64
2018-09-30T12:19:13.418Z,101626.05
2018-09-30T12:21:42.316Z,101627.09
2018-09-30T12:24:11.276Z,101618.53
2018-09-30T12:26:40.219Z,101610.60
2018-09-30T12:29:09.259Z,101603.86
2018-09-30T12:31:38.384Z,101601.14
2018-09-30T12:34:08.413Z,101596.90
2018-09-30T12:36:37.400Z,101599.09
2018-09-30T12:39:07.754Z,101603.83
2018-09-30T12:41:36.854Z,101601.55
2018-09-30T12:44:05.814Z,101594.00
2018-09-30T12:46:37.743Z,101597.69
2018-09-30T12:49:06.651Z,101591.67
2018-09-30T12:51:35.571Z,101589.42
2018-09-30T12:54:04.575Z,101591.06
2018-09-30T12:56:33.516Z,101594.18
2018-09-30T12:59:02.441Z,101594.97
2018-09-30T13:01:31.337Z,101597.48
2018-09-30T13:04:00.250Z,101590.52
2018-09-30T13:06:29.151Z,101596.29
2018-09-30T13:08:58.341Z,101581.84
2018-09-30T13:11:27.343Z,101582.14
2018-09-30T13:13:56.329Z,101582.72
2018-09-30T13:16:25.261Z,101584.62
2018-09-30T13:18:54.212Z,101583.74
2018-09-30T13:21:23.132Z,101577.22
2018-09-30T13:23:52.324Z,101568.91
2018-09-30T13:26:21.269Z,101566.42
2018-09-30T13:28:50.264Z,101566.60
2018-09-30T13:31:19.231Z,101576.88
2018-09-30T13:33:48.223Z,101572.73
2018-09-30T13:36:17.145Z,101572.06
2018-09-30T13:38:48.088Z,101571.58
2018-09-30T13:41:17.081Z,101567.14
2018-09-30T13:43:45.942Z,101556.06
2018-09-30T13:46:16.979Z,101570.69
2018-09-30T13:48:45.888Z,101565.18
2018-09-30T13:51:14.924Z,101570.98
2018-09-30T13:53:43.766Z,101568.45
2018-09-30T13:56:12.743Z,101567.11
2018-09-30T13:58:41.637Z,101574.93
2018-09-30T14:01:11.663Z,101574.42
2018-09-30T14:03:40.628Z,101569.10
2018-09-30T14:06:10.191Z,101573.84
2018-09-30T14:08:39.069Z,101579.16
2018-09-30T14:11:08.062Z,101579.24
2018-09-30T14:13:37.054Z,101586.00
2018-09-30T14:16:05.999Z,101589.47
2018-09-30T14:18:34.954Z,101581.19
2018-09-30T14:21:03.893Z,101587.31
2018-09-30T14:23:32.810Z,101582.27
2018-09-30T14:26:01.758Z,101583.03
2018-09-30T14:28:30.747Z,101575.85
2018-09-30T14:30:59.750Z,101582.46
2018-09-30T14:33:28.702Z,101585.63
2018-09-30T14:35:57.813Z,101577.20
2018-09-30T14:38:26.747Z,101574.45
2018-09-30T14:40:55.747Z,101577.27
2018-09-30T14:43:24.655Z,101585.91
2018-09-30T14:45:53.568Z,101579.82
2018-09-30T14:48:22.717Z,101573.23
2018-09-30T14:50:51.567Z,101584.04
2018-09-30T14:53:20.548Z,101572.64
2018-09-30T14:55:49.489Z,101586.57
2018-09-30T14:58:19.563Z,101582.92
2018-09-30T15:00:48.571Z,101579.56
2018-09-30T15:03:17.464Z,101579.70
2018-09-30T15:05:46.428Z,101576.25
2018-09-30T15:08:15.642Z,101569.30
2018-09-30T15:10:44.622Z,101568.36
2018-09-30T15:13:13.512Z,101569.63
2018-09-30T15:15:42.476Z,101568.56
2018-09-30T15:18:11.395Z,101571.29
2018-09-30T15:20:40.323Z,101567.17
2018-09-30T15:23:09.410Z,101570.77
2018-09-30T15:25:38.563Z,101574.42
2018-09-30T15:28:07.685Z,101565.89
2018-09-30T15:30:36.774Z,101566.98
2018-09-30T15:33:05.924Z,101562.95
2018-09-30T15:35:34.901Z,101563.99
2018-09-30T15:38:03.956Z,101563.77
2018-09-30T15:40:32.925Z,101558.51
2018-09-30T15:43:02.726Z,101555.64
2018-09-30T15:45:31.614Z,101554.95
2018-09-30T15:48:01.345Z,101561.66
2018-09-30T15:50:30.464Z,101558.82
2018-09-30T15:52:59.377Z,101557.15
2018-09-30T15:55:28.372Z,101558.95
2018-09-30T15:57:57.262Z,101558.91
2018-09-30T16:00:26.251Z,101560.92
2018-09-30T16:02:55.177Z,101563.73
2018-09-30T16:05:24.079Z,101558.33
2018-09-30T16:07:53.003Z,101552.13
2018-09-30T16:10:21.955Z,101559.40
2018-09-30T16:12:51.566Z,101549.95
2018-09-30T16:15:20.504Z,101554.28
2018-09-30T16:17:49.398Z,101554.94
2018-09-30T16:20:18.295Z,101556.12
2018-09-30T16:22:47.353Z,101567.07
2018-09-30T16:25:16.361Z,101558.81
2018-09-30T16:27:46.101Z,101564.38
2018-09-30T16:30:15.143Z,101564.75
2018-09-30T16:32:44.089Z,101561.27
2018-09-30T16:35:13.133Z,101561.06
2018-09-30T16:37:42.021Z,101549.37
2018-09-30T16:40:10.989Z,101559.72
2018-09-30T16:42:40.010Z,101558.64
2018-09-30T16:45:09.001Z,101559.80
2018-09-30T16:47:38.064Z,101559.55
2018-09-30T16:50:07.069Z,101562.54
2018-09-30T16:52:36.256Z,101558.28
2018-09-30T16:55:05.161Z,101550.89
2018-09-30T16:57:34.112Z,101554.85
2018-09-30T17:00:03.314Z,101556.23
2018-09-30T17:02:32.612Z,101558.64
2018-09-30T17:05:01.467Z,101564.03
2018-09-30T17:07:30.359Z,101570.13
2018-09-30T17:10:00.270Z,101564.16
2018-09-30T17:12:29.276Z,101563.38
2018-09-30T17:14:58.356Z,101564.73
2018-09-30T17:17:27.480Z,101562.49
2018-09-30T17:19:56.435Z,101557.80
2018-09-30T17:22:25.466Z,101565.89
2018-09-30T17:24:54.431Z,101570.58
2018-09-30T17:27:23.399Z,101567.19
2018-09-30T17:29:52.496Z,101563.38
2018-09-30T17:32:21.789Z,101560.98
2018-09-30T17:34:50.885Z,101564.25
2018-09-30T17:39:50.153Z,101561.97
2018-09-30T17:42:19.251Z,101561.89
2018-09-30T17:44:49.263Z,101567.69
2018-09-30T17:47:19.321Z,101562.25
2018-09-30T17:49:48.423Z,101563.97
2018-09-30T17:52:17.519Z,101566.50
2018-09-30T17:54:47.684Z,101563.47
2018-09-30T17:57:16.725Z,101561.09
2018-09-30T17:59:45.724Z,101571.75
2018-09-30T18:02:15.844Z,101564.95
2018-09-30T18:04:46.485Z,101570.15
2018-09-30T18:07:15.459Z,101570.96
2018-09-30T18:09:46.577Z,101575.00
2018-09-30T18:12:15.549Z,101577.50
2018-09-30T18:14:44.486Z,101585.59
2018-09-30T18:17:15.420Z,101579.50
2018-09-30T18:19:44.763Z,101567.78
2018-09-30T18:22:15.289Z,101574.59
2018-09-30T18:24:44.549Z,101569.74
2018-09-30T18:27:13.571Z,101570.76
2018-09-30T18:29:42.763Z,101574.27
2018-09-30T18:32:12.147Z,101568.72
2018-09-30T18:34:41.470Z,101574.44
2018-09-30T18:37:12.641Z,101567.22
2018-09-30T18:39:44.487Z,101571.34
2018-09-30T18:42:14.276Z,101567.52
2018-09-30T18:44:43.537Z,101569.69
2018-09-30T18:47:12.714Z,101572.45
2018-09-30T18:49:43.066Z,101575.20
2018-09-30T18:52:12.374Z,101578.47
2018-09-30T18:54:41.719Z,101573.02
2018-09-30T18:57:10.946Z,101578.56
2018-09-30T18:59:40.336Z,101583.58
2018-09-30T19:02:09.816Z,101576.84
2018-09-30T19:04:39.116Z,101583.80
2018-09-30T19:07:08.724Z,101583.73
2018-09-30T19:09:37.965Z,101577.41
2018-09-30T19:12:09.219Z,101583.31
2018-09-30T19:14:38.524Z,101585.56
2018-09-30T19:17:07.927Z,101577.15
2018-09-30T19:19:37.704Z,101574.23
2018-09-30T19:22:10.981Z,101579.20
2018-09-30T19:24:40.256Z,101582.30
2018-09-30T19:27:11.272Z,101569.56
2018-09-30T19:29:40.141Z,101580.81
2018-09-30T19:32:09.100Z,101577.34
2018-09-30T19:34:38.337Z,101576.92
2018-09-30T19:37:07.223Z,101583.66
2018-09-30T19:39:36.284Z,101589.91
2018-09-30T19:42:07.231Z,101583.73
2018-09-30T19:44:36.203Z,101585.42
2018-09-30T19:47:06.390Z,101590.66
2018-09-30T19:49:35.353Z,101584.30
2018-09-30T19:52:05.328Z,101585.98
2018-09-30T19:54:34.269Z,101580.45
2018-09-30T19:57:04.296Z,101586.70
2018-09-30T19:59:33.223Z,101579.17
2018-09-30T20:02:02.203Z,101583.22
2018-09-30T20:04:31.424Z,101582.02
2018-09-30T20:07:00.512Z,101578.46
2018-09-30T20:09:30.418Z,101578.91
2018-09-30T20:11:59.323Z,101576.92
2018-09-30T20:14:28.292Z,101569.19
2018-09-30T20:16:57.172Z,101544.95
2018-09-30T20:19:26.164Z,101566.72
2018-09-30T20:21:56.062Z,101568.92
2018-09-30T20:24:28.419Z,101559.04
2018-09-30T20:26:57.514Z,101555.87
2018-09-30T20:29:26.897Z,101552.23
2018-09-30T20:31:56.883Z,101553.73
2018-09-30T20:34:25.792Z,101555.23
2018-09-30T20:36:54.791Z,101555.16
2018-09-30T20:39:23.813Z,101550.55
2018-09-30T20:41:52.776Z,101552.53
2018-09-30T20:44:21.686Z,101555.45
2018-09-30T20:46:50.550Z,101556.50
2018-09-30T20:49:19.411Z,101558.41
2018-09-30T20:51:50.341Z,101533.39
2018-09-30T20:54:19.222Z,101560.46
2018-09-30T20:56:48.185Z,101560.95
2018-09-30T20:59:17.256Z,101562.52
2018-09-30T21:01:46.230Z,101563.64
2018-09-30T21:04:15.132Z,101568.53
2018-09-30T21:06:44.872Z,101562.30
2018-09-30T21:09:15.688Z,101565.77
2018-09-30T21:11:44.576Z,101562.30
2018-09-30T21:14:13.609Z,101558.34
2018-09-30T21:16:42.495Z,101558.34
2018-09-30T21:19:11.373Z,101569.19
2018-09-30T21:21:40.372Z,101565.63
2018-09-30T21:24:09.225Z,101570.39
2018-09-30T21:26:38.177Z,101569.45
2018-09-30T21:29:07.032Z,101568.63
2018-09-30T21:31:36.533Z,101566.27
2018-09-30T21:34:05.502Z,101572.93
2018-09-30T21:36:34.305Z,101566.02
2018-09-30T21:39:03.288Z,101566.57
2018-09-30T21:41:32.231Z,101563.66
2018-09-30T21:44:01.239Z,101555.02
2018-09-30T21:46:30.163Z,101562.23
2018-09-30T21:48:59.123Z,101558.75
2018-09-30T21:51:27.950Z,101558.20
2018-09-30T21:53:56.831Z,101559.13
2018-09-30T21:56:25.758Z,101561.38
2018-09-30T21:58:54.676Z,101557.81
2018-09-30T22:01:23.697Z,101555.66
2018-09-30T22:03:52.544Z,101556.06
2018-09-30T22:06:21.456Z,101552.25
2018-09-30T22:08:56.193Z,101547.91
2018-09-30T22:11:30.779Z,101548.13
2018-09-30T22:13:59.873Z,101551.39
2018-09-30T22:16:28.869Z,101541.25
2018-09-30T22:18:57.940Z,101531.45
2018-09-30T22:21:26.870Z,101542.67
2018-09-30T22:23:55.887Z,101544.35
2018-09-30T22:26:24.889Z,101544.73
2018-09-30T22:28:53.803Z,101543.95
2018-09-30T22:31:22.699Z,101551.61
2018-09-30T22:33:51.688Z,101552.58
2018-09-30T22:36:20.653Z,101547.76
2018-09-30T22:38:49.589Z,101548.92
2018-09-30T22:41:18.499Z,101553.38
2018-09-30T22:43:47.396Z,101550.52
2018-09-30T22:46:16.244Z,101554.64
2018-09-30T22:48:45.163Z,101559.16
2018-09-30T22:51:14.056Z,101562.64
2018-09-30T22:53:42.924Z,101570.80
2018-09-30T22:56:11.864Z,101569.86
2018-09-30T22:58:40.849Z,101574.67
2018-09-30T23:01:09.710Z,101579.42
2018-09-30T23:03:38.651Z,101587.91
2018-09-30T23:06:07.697Z,101591.30
2018-09-30T23:08:36.736Z,101595.77
2018-09-30T23:11:05.712Z,101593.23
2018-09-30T23:13:34.607Z,101601.64
2018-09-30T23:16:03.609Z,101603.27
2018-09-30T23:18:32.511Z,101593.39
2018-09-30T23:21:01.459Z,101591.62
2018-09-30T23:23:30.413Z,101594.86
2018-09-30T23:25:59.297Z,101594.85
2018-09-30T23:28:28.237Z,101598.75
2018-09-30T23:30:57.111Z,101585.08
2018-09-30T23:33:26.035Z,101584.40
2018-09-30T23:35:55.076Z,101580.20
2018-09-30T23:38:23.957Z,101575.80
2018-09-30T23:40:52.876Z,101567.84
2018-09-30T23:43:22.040Z,101564.61
2018-09-30T23:45:50.943Z,101560.09
2018-09-30T23:48:19.892Z,101568.16
2018-09-30T23:50:48.876Z,101565.35
2018-09-30T23:53:17.775Z,101569.95
2018-09-30T23:55:46.679Z,101565.13
2018-09-30T23:58:15.642Z,101558.95
